Harris, Missouri
Current Conditions -  °F | °C
As of 9:50 PM on Sunday 23 Nov 2014 (Local Time) from KTVK Reporting Station
Light Rain Light Rain  
Wind Chill: 28°   Ceiling: NA
Heat Index: 39°   Visibility: 10mi
Dew Point: 39°   Wind: 26mph
Humidity: 100%   Direction: 310°NW
Pressure: 29.34"   Gusts: 33mph
Location:  40.31°N, 93.35°W
Report Text: KTVK 240350Z AUTO 31023G29KT 10SM -RA 04/04 A2934 RMK AO2
Loading
Personal Weather Stations






























Interactive Weather Map New forecast layout! Learn more

10-Day Weather Forecast

Advertisements
Track Severe Weather on mobile